createdAt,value
2018-12-07T00:01:54.513Z,41.53
2018-12-07T00:04:23.792Z,42.80
2018-12-07T00:06:52.789Z,42.23
2018-12-07T00:09:21.803Z,42.25
2018-12-07T00:11:50.872Z,41.73
2018-12-07T00:14:19.945Z,40.58
2018-12-07T00:16:48.907Z,39.88
2018-12-07T00:19:17.839Z,40.70
2018-12-07T00:21:46.831Z,38.48
2018-12-07T00:24:15.944Z,39.50
2018-12-07T00:26:45.040Z,39.25
2018-12-07T00:29:14.146Z,39.23
2018-12-07T00:31:43.116Z,38.05
2018-12-07T00:34:12.123Z,36.80
2018-12-07T00:36:41.288Z,38.05
2018-12-07T00:39:10.453Z,37.13
2018-12-07T00:41:39.422Z,36.55
2018-12-07T00:44:08.638Z,35.35
2018-12-07T00:46:37.593Z,35.43
2018-12-07T00:49:06.592Z,34.35
2018-12-07T00:51:35.679Z,34.75
2018-12-07T00:54:04.671Z,34.85
2018-12-07T00:56:33.785Z,34.88
2018-12-07T00:59:02.763Z,35.73
2018-12-07T01:01:31.783Z,34.58
2018-12-07T01:04:00.781Z,31.75
2018-12-07T01:06:29.787Z,32.83
2018-12-07T01:08:58.767Z,31.62
2018-12-07T01:11:27.829Z,32.23
2018-12-07T01:13:56.908Z,31.20
2018-12-07T01:16:26.058Z,30.70
2018-12-07T01:18:54.944Z,31.50
2018-12-07T01:21:24.000Z,29.75
2018-12-07T01:23:53.018Z,29.92
2018-12-07T01:26:22.164Z,30.10
2018-12-07T01:28:51.103Z,29.77
2018-12-07T01:31:20.087Z,29.45
2018-12-07T01:33:49.254Z,28.42
2018-12-07T01:36:18.292Z,28.77
2018-12-07T01:38:47.380Z,27.32
2018-12-07T01:41:16.493Z,28.17
2018-12-07T01:43:45.572Z,27.77
2018-12-07T01:46:14.592Z,27.45
2018-12-07T01:48:43.679Z,26.62
2018-12-07T01:51:12.813Z,26.68
2018-12-07T01:53:41.764Z,26.25
2018-12-07T01:56:10.770Z,25.97
2018-12-07T01:58:39.741Z,25.02
2018-12-07T02:01:08.857Z,25.55
2018-12-07T02:03:37.839Z,25.55
2018-12-07T02:06:06.881Z,25.85
2018-12-07T02:08:35.873Z,25.37
2018-12-07T02:11:04.953Z,24.57
2018-12-07T02:13:34.109Z,24.15
2018-12-07T02:16:03.180Z,25.08
2018-12-07T02:18:32.331Z,24.57
2018-12-07T02:21:01.406Z,23.73
2018-12-07T02:23:30.644Z,23.52
2018-12-07T02:25:59.688Z,23.40
2018-12-07T02:28:28.729Z,23.90
2018-12-07T02:30:57.716Z,23.32
2018-12-07T02:33:26.738Z,23.35
2018-12-07T02:35:55.686Z,23.87
2018-12-07T02:38:24.701Z,22.15
2018-12-07T02:40:53.709Z,22.07
2018-12-07T02:43:22.775Z,22.22
2018-12-07T02:45:51.773Z,22.15
2018-12-07T02:48:20.887Z,20.97
2018-12-07T02:50:50.056Z,22.40
2018-12-07T02:53:19.145Z,22.70
2018-12-07T02:55:48.256Z,20.65
2018-12-07T02:58:17.366Z,19.45
2018-12-07T03:00:46.461Z,20.05
2018-12-07T03:03:15.456Z,20.35
2018-12-07T03:05:44.566Z,20.00
2018-12-07T03:08:13.651Z,20.48
2018-12-07T03:10:42.755Z,20.05
2018-12-07T03:13:11.744Z,18.52
2018-12-07T03:15:40.739Z,19.17
2018-12-07T03:18:19.347Z,19.12
2018-12-07T03:20:48.334Z,17.73
2018-12-07T03:23:17.341Z,18.23
2018-12-07T03:25:46.421Z,18.62
2018-12-07T03:28:15.672Z,17.30
2018-12-07T03:30:44.672Z,17.65
2018-12-07T03:33:13.637Z,18.48
2018-12-07T03:35:42.711Z,17.65
2018-12-07T03:38:11.805Z,16.27
2018-12-07T03:40:40.889Z,16.73
2018-12-07T03:43:09.992Z,17.50
2018-12-07T03:45:38.995Z,16.67
2018-12-07T03:48:08.092Z,16.62
2018-12-07T03:50:37.080Z,16.05
2018-12-07T03:53:06.180Z,15.88
2018-12-07T03:55:35.272Z,16.75
2018-12-07T03:58:04.391Z,16.42
2018-12-07T04:00:33.480Z,16.70
2018-12-07T04:03:02.494Z,15.68
2018-12-07T04:05:31.609Z,15.70
2018-12-07T04:08:00.565Z,16.95
2018-12-07T04:10:29.631Z,14.87
2018-12-07T04:12:58.648Z,15.28
2018-12-07T04:15:27.661Z,14.63
2018-12-07T04:17:56.723Z,13.80
2018-12-07T04:20:25.820Z,15.38
2018-12-07T04:22:55.044Z,14.87
2018-12-07T04:25:24.013Z,14.43
2018-12-07T04:27:52.884Z,14.35
2018-12-07T04:30:26.437Z,13.85
2018-12-07T04:32:55.627Z,14.20
2018-12-07T04:35:24.608Z,13.58
2018-12-07T04:37:53.816Z,13.95
2018-12-07T04:40:22.925Z,13.35
2018-12-07T04:42:51.911Z,14.58
2018-12-07T04:45:20.889Z,14.28
2018-12-07T04:47:49.912Z,13.50
2018-12-07T04:50:18.999Z,14.23
2018-12-07T04:52:47.984Z,13.35
2018-12-07T04:55:16.980Z,13.15
2018-12-07T04:57:45.982Z,12.68
2018-12-07T05:00:14.968Z,13.20
2018-12-07T05:02:43.933Z,13.00
2018-12-07T05:05:13.160Z,13.22
2018-12-07T05:07:42.127Z,13.00
2018-12-07T05:10:11.151Z,12.28
2018-12-07T05:12:40.233Z,12.68
2018-12-07T05:15:09.350Z,12.15
2018-12-07T05:17:38.524Z,12.60
2018-12-07T05:20:08.188Z,12.37
2018-12-07T05:25:37.024Z,10.13
2018-12-07T05:28:06.132Z,10.53
2018-12-07T05:30:35.155Z,11.10
2018-12-07T05:33:04.252Z,10.70
2018-12-07T05:35:33.355Z,10.95
2018-12-07T05:38:02.522Z,10.38
2018-12-07T05:40:31.751Z,10.63
2018-12-07T05:43:00.776Z,11.45
2018-12-07T05:45:29.738Z,11.55
2018-12-07T05:47:58.819Z,11.50
2018-12-07T05:50:27.714Z,11.20
2018-12-07T05:52:56.908Z,11.28
2018-12-07T05:55:26.003Z,11.75
2018-12-07T05:57:55.083Z,11.50
2018-12-07T06:00:24.221Z,11.85
2018-12-07T06:02:53.385Z,14.00
2018-12-07T06:05:22.383Z,15.15
2018-12-07T06:07:51.589Z,13.90
2018-12-07T06:10:20.708Z,13.55
2018-12-07T06:12:49.793Z,14.38
2018-12-07T06:15:19.127Z,19.50
2018-12-07T06:17:48.190Z,34.27
2018-12-07T06:20:17.310Z,31.25
2018-12-07T06:22:46.383Z,24.55
2018-12-07T06:25:15.531Z,20.27
2018-12-07T06:27:44.740Z,18.52
2018-12-07T06:30:13.829Z,35.03
2018-12-07T06:32:42.993Z,21.73
2018-12-07T06:35:12.084Z,26.12
2018-12-07T06:37:40.908Z,33.38
2018-12-07T06:40:09.660Z,32.93
2018-12-07T06:42:38.420Z,32.30
2018-12-07T06:45:07.260Z,31.25
2018-12-07T06:47:36.340Z,30.88
2018-12-07T06:50:05.722Z,35.52
2018-12-07T06:52:34.829Z,32.83
2018-12-07T06:55:03.873Z,36.10
2018-12-07T06:57:32.933Z,43.50
2018-12-07T07:00:02.253Z,40.75
2018-12-07T07:02:31.302Z,38.13
2018-12-07T07:05:00.525Z,42.30
2018-12-07T07:07:29.656Z,46.80
2018-12-07T07:09:58.647Z,48.55
2018-12-07T07:12:29.177Z,49.77
2018-12-07T07:14:58.533Z,47.88
2018-12-07T07:17:27.534Z,50.55
2018-12-07T07:19:56.551Z,52.30
2018-12-07T07:22:25.593Z,54.05
2018-12-07T07:24:54.618Z,58.02
2018-12-07T07:27:23.627Z,58.33
2018-12-07T07:29:52.641Z,64.70
2018-12-07T07:32:21.819Z,59.53
2018-12-07T07:34:51.007Z,61.53
2018-12-07T07:37:20.124Z,60.45
2018-12-07T07:39:49.199Z,65.67
2018-12-07T07:42:18.364Z,58.83
2018-12-07T07:44:47.393Z,65.90
2018-12-07T07:47:16.479Z,66.45
2018-12-07T07:49:45.592Z,67.15
2018-12-07T07:52:14.633Z,74.90
2018-12-07T07:54:43.615Z,69.80
2018-12-07T07:57:12.664Z,70.10
2018-12-07T07:59:41.648Z,76.42
2018-12-07T08:02:10.628Z,69.30
2018-12-07T08:04:39.372Z,70.08
2018-12-07T08:07:08.337Z,78.05
2018-12-07T08:09:37.432Z,75.35
2018-12-07T08:12:06.530Z,79.12
2018-12-07T08:14:35.637Z,79.80
2018-12-07T08:17:04.724Z,82.80
2018-12-07T08:19:33.724Z,82.02
2018-12-07T08:22:02.968Z,83.30
2018-12-07T08:24:32.348Z,84.35
2018-12-07T08:27:01.321Z,91.82
2018-12-07T08:29:30.594Z,92.57
2018-12-07T08:31:59.669Z,88.25
2018-12-07T08:34:28.765Z,87.12
2018-12-07T08:36:57.805Z,89.87
2018-12-07T08:39:26.801Z,93.17
2018-12-07T08:41:55.848Z,96.55
2018-12-07T08:44:24.955Z,97.30
2018-12-07T08:46:54.068Z,103.87
2018-12-07T08:49:28.194Z,121.33
2018-12-07T08:51:57.214Z,87.27
2018-12-07T08:54:26.182Z,82.67
2018-12-07T08:56:55.221Z,87.97
2018-12-07T08:59:24.184Z,86.42
2018-12-07T09:01:53.199Z,89.80
2018-12-07T09:04:22.264Z,90.55
2018-12-07T09:06:51.397Z,94.28
2018-12-07T09:09:20.547Z,110.17
2018-12-07T09:11:49.588Z,97.60
2018-12-07T09:14:18.668Z,97.42
2018-12-07T09:16:47.736Z,91.37
2018-12-07T09:19:16.825Z,103.05
2018-12-07T09:21:45.939Z,125.33
2018-12-07T09:24:15.033Z,111.10
2018-12-07T09:26:44.032Z,114.75
2018-12-07T09:29:13.120Z,100.27
2018-12-07T09:31:42.329Z,97.75
2018-12-07T09:34:11.353Z,95.87
2018-12-07T09:36:40.563Z,100.70
2018-12-07T09:39:10.724Z,102.17
2018-12-07T09:41:39.830Z,104.50
2018-12-07T09:44:08.817Z,102.25
2018-12-07T09:46:37.960Z,104.30
2018-12-07T09:49:07.019Z,103.38
2018-12-07T09:51:36.190Z,105.37
2018-12-07T09:54:05.341Z,104.23
2018-12-07T09:56:34.318Z,111.52
2018-12-07T09:59:03.306Z,108.80
2018-12-07T10:01:32.320Z,109.03
2018-12-07T10:04:01.569Z,112.70
2018-12-07T10:06:30.633Z,108.80
2018-12-07T10:08:59.679Z,112.95
2018-12-07T10:11:28.776Z,108.87
2018-12-07T10:13:57.868Z,116.30
2018-12-07T10:16:26.875Z,115.17
2018-12-07T10:18:55.941Z,118.33
2018-12-07T10:21:25.004Z,120.75
2018-12-07T10:23:53.879Z,127.97
2018-12-07T10:26:22.860Z,122.42
2018-12-07T10:28:51.904Z,121.25
2018-12-07T10:31:20.977Z,117.33
2018-12-07T10:33:50.823Z,118.47
2018-12-07T10:36:19.970Z,123.22
2018-12-07T10:38:49.031Z,124.92
2018-12-07T10:41:18.129Z,126.85
2018-12-07T10:43:47.144Z,129.60
2018-12-07T10:46:16.233Z,131.55
2018-12-07T10:48:45.441Z,132.63
2018-12-07T10:51:14.392Z,130.87
2018-12-07T10:53:43.409Z,143.17
2018-12-07T10:56:12.520Z,141.90
2018-12-07T10:58:41.539Z,138.32
2018-12-07T11:01:15.709Z,134.70
2018-12-07T11:03:49.646Z,131.87
2018-12-07T11:06:23.870Z,134.00
2018-12-07T11:08:57.791Z,122.78
2018-12-07T11:11:31.857Z,121.02
2018-12-07T11:14:06.055Z,111.55
2018-12-07T11:16:40.013Z,113.30
2018-12-07T11:20:14.753Z,113.72
2018-12-07T11:22:48.637Z,115.65
2018-12-07T11:25:22.694Z,117.37
2018-12-07T11:27:56.677Z,118.28
2018-12-07T11:30:30.394Z,121.13
2018-12-07T11:33:04.841Z,124.20
2018-12-07T11:35:37.211Z,129.63
2018-12-07T11:38:06.187Z,124.20
2018-12-07T11:40:35.272Z,126.60
2018-12-07T11:43:04.372Z,122.98
2018-12-07T11:45:33.460Z,127.72
2018-12-07T11:48:02.607Z,134.47
2018-12-07T11:50:31.684Z,132.90
2018-12-07T11:53:00.697Z,128.82
2018-12-07T11:55:29.744Z,125.97
2018-12-07T11:57:58.717Z,133.27
2018-12-07T12:00:27.743Z,134.45
2018-12-07T12:02:56.829Z,138.12
2018-12-07T12:05:25.963Z,138.35
2018-12-07T12:07:55.107Z,134.70
2018-12-07T12:10:24.380Z,133.37
2018-12-07T12:12:53.400Z,148.97
2018-12-07T12:15:22.673Z,145.45
2018-12-07T12:17:51.820Z,140.75
2018-12-07T12:20:20.952Z,143.02
2018-12-07T12:22:50.016Z,142.82
2018-12-07T12:25:19.120Z,141.12
2018-12-07T12:27:48.308Z,142.85
2018-12-07T12:30:17.929Z,147.45
2018-12-07T12:32:47.224Z,147.45
2018-12-07T12:35:16.346Z,146.77
2018-12-07T12:37:45.497Z,144.28
2018-12-07T12:40:14.644Z,153.12
2018-12-07T12:42:43.699Z,149.82
2018-12-07T12:45:12.799Z,157.90
2018-12-07T12:47:41.886Z,145.65
2018-12-07T12:50:16.074Z,149.38
2018-12-07T12:52:45.159Z,147.85
2018-12-07T12:55:14.322Z,151.95
2018-12-07T12:57:43.367Z,150.50
2018-12-07T13:00:12.441Z,151.65
2018-12-07T13:02:41.690Z,155.00
2018-12-07T13:05:10.794Z,156.70
2018-12-07T13:07:39.770Z,160.50
2018-12-07T13:10:08.875Z,162.62
2018-12-07T13:12:37.935Z,166.73
2018-12-07T13:15:07.047Z,155.05
2018-12-07T13:17:36.090Z,156.32
2018-12-07T13:20:05.791Z,160.37
2018-12-07T13:22:34.813Z,156.70
2018-12-07T13:25:03.991Z,158.68
2018-12-07T13:27:33.176Z,155.78
2018-12-07T13:30:02.178Z,158.07
2018-12-07T13:32:31.490Z,157.45
2018-12-07T13:35:00.575Z,152.78
2018-12-07T13:37:29.772Z,156.72
2018-12-07T13:39:58.986Z,147.47
2018-12-07T13:42:27.984Z,141.82
2018-12-07T13:44:57.194Z,127.38
2018-12-07T13:47:26.578Z,121.22
2018-12-07T13:51:01.539Z,139.92
2018-12-07T13:53:31.023Z,138.20
2018-12-07T13:56:00.187Z,138.88
2018-12-07T13:58:29.411Z,135.90
2018-12-07T14:00:58.818Z,133.32
2018-12-07T14:03:28.116Z,133.27
2018-12-07T14:05:57.375Z,127.40
2018-12-07T14:08:26.784Z,133.65
2018-12-07T14:10:56.162Z,126.45
2018-12-07T14:13:25.366Z,128.38
2018-12-07T14:15:54.673Z,127.32
2018-12-07T14:18:24.096Z,123.15
2018-12-07T14:20:53.174Z,123.67
2018-12-07T14:23:22.620Z,122.55
2018-12-07T14:25:51.887Z,124.67
2018-12-07T14:28:20.996Z,125.27
2018-12-07T14:30:50.301Z,123.38
2018-12-07T14:33:19.528Z,119.13
2018-12-07T14:35:48.791Z,120.82
2018-12-07T14:38:17.921Z,117.33
2018-12-07T14:40:47.077Z,118.35
2018-12-07T14:43:16.219Z,115.50
2018-12-07T14:45:45.579Z,113.47
2018-12-07T14:48:15.198Z,118.08
2018-12-07T14:50:44.649Z,115.67
2018-12-07T14:53:13.999Z,114.12
2018-12-07T14:55:43.310Z,114.30
2018-12-07T14:58:12.657Z,111.60
2018-12-07T15:00:41.957Z,111.68
2018-12-07T15:03:11.042Z,111.85
2018-12-07T15:05:40.127Z,108.52
2018-12-07T15:08:09.185Z,110.15
2018-12-07T15:10:38.451Z,108.52
2018-12-07T15:13:07.973Z,111.20
2018-12-07T15:15:37.305Z,101.42
2018-12-07T15:18:06.659Z,106.20
2018-12-07T15:20:35.784Z,103.30
2018-12-07T15:23:05.139Z,106.10
2018-12-07T15:25:34.524Z,103.15
2018-12-07T15:28:03.920Z,102.58
2018-12-07T15:30:33.241Z,100.92
2018-12-07T15:33:02.397Z,99.35
2018-12-07T15:35:31.614Z,98.82
2018-12-07T15:38:00.841Z,96.92
2018-12-07T15:40:29.970Z,93.97
2018-12-07T15:42:59.127Z,97.53
2018-12-07T15:45:28.303Z,93.50
2018-12-07T15:47:57.380Z,94.97
2018-12-07T15:50:26.459Z,93.62
2018-12-07T15:52:55.576Z,93.25
2018-12-07T15:55:24.822Z,91.72
2018-12-07T15:57:54.212Z,90.90
2018-12-07T16:00:23.373Z,89.97
2018-12-07T16:02:52.571Z,91.30
2018-12-07T16:05:21.838Z,87.05
2018-12-07T16:07:51.199Z,86.85
2018-12-07T16:10:20.112Z,85.03
2018-12-07T16:12:49.353Z,84.90
2018-12-07T16:15:18.426Z,84.32
2018-12-07T16:17:47.775Z,84.52
2018-12-07T16:20:18.889Z,83.20
2018-12-07T16:22:48.040Z,84.37
2018-12-07T16:25:17.556Z,83.27
2018-12-07T16:27:46.846Z,81.63
2018-12-07T16:30:15.862Z,82.15
2018-12-07T16:32:45.004Z,79.77
2018-12-07T16:35:14.220Z,79.30
2018-12-07T16:37:43.502Z,76.53
2018-12-07T16:40:12.824Z,77.32
2018-12-07T16:42:41.994Z,76.12
2018-12-07T16:45:11.254Z,72.50
2018-12-07T16:47:40.541Z,70.32
2018-12-07T16:50:09.739Z,72.80
2018-12-07T16:52:39.167Z,73.72
2018-12-07T16:55:08.268Z,69.37
2018-12-07T16:57:37.603Z,74.42
2018-12-07T17:00:07.413Z,73.02
2018-12-07T17:02:36.468Z,68.92
2018-12-07T17:05:06.133Z,63.30
2018-12-07T17:07:35.705Z,63.15
2018-12-07T17:10:05.355Z,59.95
2018-12-07T17:12:34.558Z,59.35
2018-12-07T17:15:03.867Z,57.70
2018-12-07T17:17:33.016Z,55.38
2018-12-07T17:20:02.143Z,55.75
2018-12-07T17:22:31.344Z,53.58
2018-12-07T17:25:00.638Z,52.53
2018-12-07T17:27:29.819Z,50.78
2018-12-07T17:29:59.184Z,49.23
2018-12-07T17:32:28.452Z,47.45
2018-12-07T17:34:57.670Z,47.30
2018-12-07T17:37:27.014Z,47.35
2018-12-07T17:39:56.130Z,46.60
2018-12-07T17:42:29.523Z,45.67
2018-12-07T17:44:56.477Z,45.58
2018-12-07T17:47:25.944Z,44.88
2018-12-07T17:49:55.298Z,44.95
2018-12-07T17:52:24.445Z,44.23
2018-12-07T17:54:53.598Z,40.65
2018-12-07T17:57:22.851Z,39.75
2018-12-07T17:59:52.212Z,38.70
2018-12-07T18:02:21.908Z,40.92
2018-12-07T18:04:51.255Z,36.80
2018-12-07T18:07:20.451Z,38.30
2018-12-07T18:09:49.733Z,36.70
2018-12-07T18:12:18.896Z,36.60
2018-12-07T18:14:48.155Z,37.33
2018-12-07T18:17:17.253Z,36.95
2018-12-07T18:19:46.462Z,36.90
2018-12-07T18:22:15.914Z,37.42
2018-12-07T18:24:45.215Z,35.13
2018-12-07T18:27:14.370Z,35.50
2018-12-07T18:29:43.419Z,35.15
2018-12-07T18:32:12.475Z,36.65
2018-12-07T18:34:41.698Z,34.03
2018-12-07T18:40:42.797Z,33.90
2018-12-07T18:43:12.000Z,33.65
2018-12-07T18:45:41.191Z,34.78
2018-12-07T18:48:10.457Z,34.20
2018-12-07T18:50:39.877Z,34.05
2018-12-07T18:53:09.167Z,34.18
2018-12-07T18:55:38.445Z,33.02
2018-12-07T18:58:07.792Z,34.10
2018-12-07T19:00:37.176Z,32.23
2018-12-07T19:03:06.709Z,32.45
2018-12-07T19:05:36.007Z,32.55
2018-12-07T19:08:05.533Z,32.45
2018-12-07T19:10:35.058Z,32.48
2018-12-07T19:13:04.732Z,32.45
2018-12-07T19:15:38.267Z,32.53
2018-12-07T19:18:07.382Z,33.15
2018-12-07T19:20:36.654Z,32.88
2018-12-07T19:23:06.049Z,32.17
2018-12-07T19:25:35.209Z,32.35
2018-12-07T19:28:05.472Z,33.60
2018-12-07T19:30:35.287Z,31.85
2018-12-07T19:33:04.641Z,32.03
2018-12-07T19:35:34.101Z,32.58
2018-12-07T19:38:03.210Z,33.23
2018-12-07T19:40:32.544Z,31.97
2018-12-07T19:43:02.179Z,32.13
2018-12-07T19:45:32.105Z,31.10
2018-12-07T19:48:02.398Z,32.10
2018-12-07T19:50:32.104Z,31.45
2018-12-07T19:53:01.522Z,31.07
2018-12-07T19:55:31.009Z,31.07
2018-12-07T19:58:00.314Z,31.15
2018-12-07T20:00:29.789Z,30.88
2018-12-07T20:02:59.216Z,29.52
2018-12-07T20:05:28.087Z,29.05
2018-12-07T20:07:57.476Z,30.72
2018-12-07T20:10:26.705Z,29.92
2018-12-07T20:12:55.673Z,29.98
2018-12-07T20:15:24.730Z,30.57
2018-12-07T20:17:54.417Z,29.70
2018-12-07T20:20:23.710Z,30.25
2018-12-07T20:22:53.272Z,28.50
2018-12-07T20:25:22.498Z,28.62
2018-12-07T20:27:51.954Z,29.18
2018-12-07T20:30:21.220Z,30.20
2018-12-07T20:32:50.582Z,28.65
2018-12-07T20:35:19.862Z,28.25
2018-12-07T20:37:49.140Z,28.25
2018-12-07T20:40:18.696Z,28.15
2018-12-07T20:42:47.830Z,28.42
2018-12-07T20:45:17.126Z,27.82
2018-12-07T20:47:46.831Z,27.27
2018-12-07T20:50:16.223Z,27.30
2018-12-07T20:52:45.359Z,26.20
2018-12-07T20:55:14.775Z,26.93
2018-12-07T20:57:43.953Z,27.37
2018-12-07T21:00:13.058Z,27.30
2018-12-07T21:02:42.201Z,27.22
2018-12-07T21:08:10.203Z,27.37
2018-12-07T21:11:15.800Z,24.45
2018-12-07T21:14:53.301Z,24.70
2018-12-07T21:17:27.712Z,25.50
2018-12-07T21:20:09.901Z,24.47
2018-12-07T21:22:39.132Z,24.30
2018-12-07T21:25:08.393Z,24.82
2018-12-07T21:27:37.771Z,24.82
2018-12-07T21:30:29.524Z,25.50
2018-12-07T21:32:58.542Z,26.02
2018-12-07T21:35:27.974Z,25.40
2018-12-07T21:37:57.181Z,25.30
2018-12-07T21:40:29.372Z,24.35
2018-12-07T21:42:58.698Z,26.48
2018-12-07T21:45:28.405Z,25.85
2018-12-07T21:48:24.447Z,26.48
2018-12-07T21:51:22.109Z,24.23
2018-12-07T21:53:51.675Z,26.42
2018-12-07T21:56:21.260Z,26.02
2018-12-07T21:58:50.898Z,26.37
2018-12-07T22:01:20.444Z,26.75
2018-12-07T22:03:50.101Z,26.55
2018-12-07T22:06:19.643Z,26.68
2018-12-07T22:08:49.151Z,26.27
2018-12-07T22:11:18.754Z,26.50
2018-12-07T22:13:48.408Z,25.88
2018-12-07T22:16:17.906Z,27.20
2018-12-07T22:18:47.462Z,26.65
2018-12-07T22:21:17.281Z,26.25
2018-12-07T22:23:47.110Z,26.77
2018-12-07T22:26:16.872Z,25.55
2018-12-07T22:28:46.366Z,27.07
2018-12-07T22:31:16.322Z,26.82
2018-12-07T22:33:46.273Z,27.13
2018-12-07T22:36:15.698Z,26.25
2018-12-07T22:38:46.272Z,25.97
2018-12-07T22:41:16.212Z,26.85
2018-12-07T22:43:45.653Z,25.82
2018-12-07T22:46:14.950Z,27.35
2018-12-07T22:48:44.611Z,26.68
2018-12-07T22:51:14.185Z,26.17
2018-12-07T22:53:43.557Z,26.57
2018-12-07T22:56:12.780Z,27.50
2018-12-07T22:58:41.848Z,26.15
2018-12-07T23:01:11.884Z,25.88
2018-12-07T23:03:41.315Z,26.37
2018-12-07T23:06:10.603Z,26.35
2018-12-07T23:08:39.835Z,26.33
2018-12-07T23:11:09.224Z,27.00
2018-12-07T23:13:38.595Z,26.90
2018-12-07T23:16:08.015Z,25.30
2018-12-07T23:18:37.306Z,24.95
2018-12-07T23:21:06.592Z,24.65
2018-12-07T23:23:35.908Z,25.77
2018-12-07T23:26:05.310Z,24.75
2018-12-07T23:28:34.797Z,23.15
2018-12-07T23:31:04.114Z,24.37
2018-12-07T23:33:33.518Z,23.95
2018-12-07T23:36:02.806Z,23.55
2018-12-07T23:38:32.065Z,24.65
2018-12-07T23:41:01.248Z,24.18
2018-12-07T23:43:30.722Z,24.05
2018-12-07T23:46:00.125Z,23.20
2018-12-07T23:48:29.534Z,22.32
2018-12-07T23:50:58.932Z,22.98
2018-12-07T23:53:28.348Z,23.52
2018-12-07T23:55:57.545Z,22.80
2018-12-07T23:58:26.853Z,22.73
